createdAt,value
2018-03-17T00:01:07.627Z,37.14
2018-03-17T00:02:16.815Z,37.24
2018-03-17T00:03:25.468Z,37.12
2018-03-17T00:04:35.008Z,37.14
2018-03-17T00:05:44.213Z,37.14
2018-03-17T00:06:53.393Z,37.14
2018-03-17T00:08:02.309Z,37.14
2018-03-17T00:09:11.234Z,37.14
2018-03-17T00:10:20.568Z,37.12
2018-03-17T00:11:29.998Z,37.24
2018-03-17T00:12:38.952Z,37.14
2018-03-17T00:13:47.871Z,37.14
2018-03-17T00:14:57.036Z,37.14
2018-03-17T00:16:06.213Z,37.02
2018-03-17T00:17:15.175Z,37.14
2018-03-17T00:18:24.108Z,37.24
2018-03-17T00:19:33.511Z,37.12
2018-03-17T00:20:42.687Z,37.14
2018-03-17T00:21:51.875Z,37.12
2018-03-17T00:23:01.297Z,37.22
2018-03-17T00:24:10.742Z,37.12
2018-03-17T00:25:19.666Z,37.14
2018-03-17T00:26:29.092Z,37.22
2018-03-17T00:27:38.023Z,37.12
2018-03-17T00:28:46.667Z,37.12
2018-03-17T00:29:55.585Z,37.14
2018-03-17T00:31:05.012Z,37.14
2018-03-17T00:32:14.243Z,37.14
2018-03-17T00:33:23.198Z,37.12
2018-03-17T00:34:32.094Z,37.14
2018-03-17T00:35:41.029Z,37.14
2018-03-17T00:36:50.196Z,37.02
2018-03-17T00:37:59.876Z,37.02
2018-03-17T00:39:09.048Z,37.12
2018-03-17T00:40:17.973Z,37.12
2018-03-17T00:41:26.883Z,37.02
2018-03-17T00:42:35.530Z,37.14
2018-03-17T00:43:44.958Z,37.22
2018-03-17T00:44:53.868Z,37.12
2018-03-17T00:46:03.117Z,37.22
2018-03-17T00:47:12.787Z,37.12
2018-03-17T00:48:21.697Z,37.12
2018-03-17T00:49:30.867Z,37.22
2018-03-17T00:50:40.022Z,37.12
2018-03-17T00:51:48.917Z,37.22
2018-03-17T00:52:58.340Z,37.12
2018-03-17T00:54:07.016Z,37.12
2018-03-17T00:55:15.919Z,37.12
2018-03-17T00:56:25.105Z,37.12
2018-03-17T00:57:33.746Z,37.12
2018-03-17T00:58:42.387Z,37.12
2018-03-17T00:59:51.566Z,37.12
2018-03-17T01:01:00.991Z,37.12
2018-03-17T01:02:10.408Z,37.12
2018-03-17T01:03:19.295Z,37.22
2018-03-17T01:04:28.203Z,37.12
2018-03-17T01:05:37.631Z,37.12
2018-03-17T01:06:46.535Z,37.12
2018-03-17T01:07:55.695Z,37.12
2018-03-17T01:09:04.327Z,37.12
2018-03-17T01:10:13.480Z,37.12
2018-03-17T01:11:22.382Z,37.12
2018-03-17T01:12:31.541Z,37.12
2018-03-17T01:13:40.690Z,37.22
2018-03-17T01:14:49.604Z,37.12
2018-03-17T01:15:58.501Z,37.12
2018-03-17T01:17:07.651Z,37.12
2018-03-17T01:18:17.080Z,37.12
2018-03-17T01:19:25.721Z,37.12
2018-03-17T01:20:35.192Z,37.12
2018-03-17T01:21:44.353Z,37.12
2018-03-17T01:22:53.514Z,37.12
2018-03-17T01:24:02.745Z,37.12
2018-03-17T01:25:11.638Z,37.12
2018-03-17T01:26:20.533Z,37.12
2018-03-17T01:27:29.689Z,37.22
2018-03-17T01:28:38.847Z,37.12
2018-03-17T01:29:47.506Z,37.12
2018-03-17T01:30:56.654Z,37.12
2018-03-17T01:32:05.816Z,37.12
2018-03-17T01:33:14.475Z,37.12
2018-03-17T01:34:23.651Z,37.22
2018-03-17T01:35:32.824Z,37.12
2018-03-17T01:36:41.719Z,37.12
2018-03-17T01:37:51.119Z,37.12
2018-03-17T01:39:00.523Z,37.12
2018-03-17T01:40:09.684Z,36.93
2018-03-17T01:41:18.579Z,37.12
2018-03-17T01:42:27.749Z,37.12
2018-03-17T01:43:36.665Z,37.12
2018-03-17T01:44:45.338Z,37.12
2018-03-17T01:45:54.738Z,37.12
2018-03-17T01:47:03.367Z,37.12
2018-03-17T01:48:12.513Z,37.12
2018-03-17T01:49:21.160Z,37.12
2018-03-17T01:50:30.603Z,37.12
2018-03-17T01:51:39.769Z,37.12
2018-03-17T01:52:48.660Z,37.12
2018-03-17T01:53:57.292Z,36.93
2018-03-17T01:55:06.206Z,37.02
2018-03-17T01:56:15.629Z,37.12
2018-03-17T01:57:25.099Z,37.12
2018-03-17T01:58:34.266Z,36.93
2018-03-17T01:59:42.902Z,37.02
2018-03-17T02:00:52.058Z,37.12
2018-03-17T02:02:00.708Z,36.93
2018-03-17T02:03:09.860Z,37.12
2018-03-17T02:04:19.014Z,37.12
2018-03-17T02:05:27.909Z,37.12
2018-03-17T02:06:36.815Z,37.12
2018-03-17T02:07:45.712Z,37.12
2018-03-17T02:08:54.346Z,37.12
2018-03-17T02:10:02.998Z,37.12
2018-03-17T02:11:12.149Z,37.12
2018-03-17T02:12:21.059Z,37.22
2018-03-17T02:13:30.221Z,37.12
2018-03-17T02:14:39.385Z,37.12
2018-03-17T02:15:48.300Z,37.12
2018-03-17T02:16:57.722Z,37.12
2018-03-17T02:18:06.918Z,37.12
2018-03-17T02:19:15.840Z,37.12
2018-03-17T02:20:24.753Z,37.12
2018-03-17T02:21:34.184Z,37.12
2018-03-17T02:22:43.620Z,36.93
2018-03-17T02:23:52.525Z,37.12
2018-03-17T02:25:01.442Z,37.22
2018-03-17T02:26:10.870Z,37.12
2018-03-17T02:27:19.769Z,36.93
2018-03-17T02:28:28.689Z,37.12
2018-03-17T02:29:37.833Z,37.12
2018-03-17T02:30:46.743Z,37.12
2018-03-17T02:31:55.651Z,37.12
2018-03-17T02:33:04.547Z,37.12
2018-03-17T02:34:13.779Z,37.12
2018-03-17T02:35:23.298Z,37.12
2018-03-17T02:36:32.601Z,37.12
2018-03-17T02:37:41.516Z,37.12
2018-03-17T02:38:50.731Z,37.12
2018-03-17T02:40:00.446Z,37.12
2018-03-17T02:41:09.619Z,37.12
2018-03-17T02:42:18.818Z,37.12
2018-03-17T02:43:27.745Z,37.12
2018-03-17T02:44:36.384Z,37.12
2018-03-17T02:45:45.588Z,36.93
2018-03-17T02:46:55.278Z,36.93
2018-03-17T02:48:04.443Z,37.02
2018-03-17T02:49:13.596Z,37.02
2018-03-17T02:50:22.770Z,36.93
2018-03-17T02:51:32.265Z,37.12
2018-03-17T02:52:41.698Z,37.02
2018-03-17T02:53:51.410Z,36.93
2018-03-17T02:55:00.575Z,37.12
2018-03-17T02:56:10.085Z,37.02
2018-03-17T02:57:19.252Z,36.93
2018-03-17T02:58:28.443Z,36.93
2018-03-17T02:59:37.911Z,37.01
2018-03-17T03:00:47.359Z,37.01
2018-03-17T03:01:56.560Z,36.93
2018-03-17T03:03:05.476Z,36.83
2018-03-17T03:04:14.643Z,36.91
2018-03-17T03:05:23.570Z,36.93
2018-03-17T03:06:33.006Z,36.83
2018-03-17T03:07:42.434Z,36.93
2018-03-17T03:08:52.170Z,36.72
2018-03-17T03:10:01.349Z,37.1
2018-03-17T03:11:10.512Z,36.91
2018-03-17T03:12:19.426Z,36.83
2018-03-17T03:13:28.068Z,36.83
2018-03-17T03:14:37.492Z,36.91
2018-03-17T03:15:46.933Z,37.01
2018-03-17T03:16:55.865Z,36.91
2018-03-17T03:18:04.779Z,36.83
2018-03-17T03:19:13.713Z,36.83
2018-03-17T03:20:22.862Z,37.2
2018-03-17T03:21:32.019Z,36.72
2018-03-17T03:22:40.684Z,36.72
2018-03-17T03:23:49.326Z,36.72
2018-03-17T03:24:58.744Z,37.12
2018-03-17T03:26:07.375Z,36.91
2018-03-17T03:27:16.573Z,36.74
2018-03-17T03:28:25.523Z,36.74
2018-03-17T03:29:34.682Z,36.83
2018-03-17T03:30:43.606Z,36.72
2018-03-17T03:31:53.019Z,37.3
2018-03-17T03:33:01.679Z,36.82
2018-03-17T03:34:11.132Z,37.02
2018-03-17T03:35:20.547Z,36.74
2018-03-17T03:36:29.706Z,36.91
2018-03-17T03:37:38.874Z,36.82
2018-03-17T03:38:48.559Z,36.83
2018-03-17T03:39:57.746Z,37.32
2018-03-17T03:41:07.177Z,37.02
2018-03-17T03:42:16.629Z,37.3
2018-03-17T03:43:25.786Z,37.3
2018-03-17T03:44:35.440Z,37.1
2018-03-17T03:45:44.854Z,36.83
2018-03-17T03:46:54.024Z,36.72
2018-03-17T03:48:02.910Z,36.74
2018-03-17T03:49:12.636Z,36.72
2018-03-17T03:50:22.056Z,36.82
2018-03-17T03:51:31.006Z,36.91
2018-03-17T03:52:40.164Z,36.72
2018-03-17T03:53:49.074Z,36.74
2018-03-17T03:54:58.500Z,36.93
2018-03-17T03:56:07.917Z,36.72
2018-03-17T03:57:17.083Z,36.72
2018-03-17T03:58:26.029Z,36.72
2018-03-17T03:59:34.935Z,36.72
2018-03-17T04:00:43.837Z,37.1
2018-03-17T04:01:52.990Z,36.91
2018-03-17T04:03:01.627Z,36.82
2018-03-17T04:04:10.566Z,37.01
2018-03-17T04:05:19.993Z,36.91
2018-03-17T04:06:28.922Z,36.91
2018-03-17T04:07:38.068Z,37.1
2018-03-17T04:08:46.976Z,37.01
2018-03-17T04:09:56.660Z,36.91
2018-03-17T04:11:05.572Z,37.01
2018-03-17T04:12:15.024Z,37.01
2018-03-17T04:13:24.699Z,36.91
2018-03-17T04:14:33.642Z,37.01
2018-03-17T04:15:42.281Z,37.1
2018-03-17T04:16:51.186Z,37.1
2018-03-17T04:18:00.105Z,37.1
2018-03-17T04:19:09.006Z,36.91
2018-03-17T04:20:18.178Z,37.2
2018-03-17T04:21:27.358Z,36.91
2018-03-17T04:22:36.000Z,37.1
2018-03-17T04:23:44.902Z,37.01
2018-03-17T04:24:54.329Z,37.2
2018-03-17T04:26:03.236Z,37.2
2018-03-17T04:27:12.662Z,37.2
2018-03-17T04:28:21.568Z,37.3
2018-03-17T04:29:30.785Z,37.01
2018-03-17T04:30:39.453Z,37.1
2018-03-17T04:31:48.400Z,37.01
2018-03-17T04:32:57.325Z,37.1
2018-03-17T04:34:05.992Z,36.91
2018-03-17T04:35:15.186Z,37.1
2018-03-17T04:36:23.859Z,37.1
2018-03-17T04:37:33.272Z,37.01
2018-03-17T04:38:42.428Z,37.01
2018-03-17T04:39:51.855Z,37.2
2018-03-17T04:41:01.037Z,37.01
2018-03-17T04:42:10.206Z,37.1
2018-03-17T04:43:19.698Z,37.01
2018-03-17T04:44:28.637Z,37.3
2018-03-17T04:45:37.526Z,37.01
2018-03-17T04:46:46.435Z,37.1
2018-03-17T04:47:55.609Z,37.1
2018-03-17T04:49:04.510Z,37.2
2018-03-17T04:50:13.420Z,37.01
2018-03-17T04:51:22.585Z,37.01
2018-03-17T04:52:31.484Z,37.01
2018-03-17T04:53:40.635Z,37.1
2018-03-17T04:54:49.547Z,36.72
2018-03-17T04:55:58.703Z,36.91
2018-03-17T04:57:08.124Z,37.01
2018-03-17T04:58:16.767Z,37.01
2018-03-17T04:59:25.672Z,36.82
2018-03-17T05:00:34.851Z,37.01
2018-03-17T05:01:44.278Z,37.01
2018-03-17T05:02:53.174Z,37.2
2018-03-17T05:04:02.850Z,37.01
2018-03-17T05:05:11.587Z,37.01
2018-03-17T05:06:20.825Z,37.01
2018-03-17T05:07:29.728Z,37.1
2018-03-17T05:08:38.881Z,37.01
2018-03-17T05:09:47.776Z,36.82
2018-03-17T05:10:56.955Z,37.2
2018-03-17T05:12:06.132Z,36.91
2018-03-17T05:13:15.300Z,37.1
2018-03-17T05:14:24.484Z,37.01
2018-03-17T05:15:33.389Z,37.1
2018-03-17T05:16:42.308Z,36.82
2018-03-17T05:17:51.986Z,37.01
2018-03-17T05:19:00.888Z,37.01
2018-03-17T05:20:10.050Z,37.01
2018-03-17T05:21:18.964Z,36.82
2018-03-17T05:22:27.599Z,37.01
2018-03-17T05:23:36.538Z,37.1
2018-03-17T05:24:45.454Z,37.1
2018-03-17T05:25:54.117Z,37.01
2018-03-17T05:27:03.267Z,36.72
2018-03-17T05:28:12.437Z,37.1
2018-03-17T05:29:21.594Z,36.82
2018-03-17T05:30:30.761Z,37.01
2018-03-17T05:31:39.667Z,37.1
2018-03-17T05:32:48.927Z,37.1
2018-03-17T05:33:58.085Z,37.01
2018-03-17T05:35:06.981Z,37.01
2018-03-17T05:36:15.616Z,37.01
2018-03-17T05:37:24.766Z,36.91
2018-03-17T05:38:34.209Z,36.72
2018-03-17T05:39:43.639Z,37.1
2018-03-17T05:40:52.550Z,36.91
2018-03-17T05:42:01.445Z,37.1
2018-03-17T05:43:10.615Z,36.82
2018-03-17T05:44:19.830Z,36.82
2018-03-17T05:45:29.000Z,36.82
2018-03-17T05:46:37.898Z,37.01
2018-03-17T05:47:47.061Z,37.1
2018-03-17T05:48:56.219Z,36.91
2018-03-17T05:50:04.849Z,36.91
2018-03-17T05:51:13.819Z,36.91
2018-03-17T05:52:22.455Z,37.08
2018-03-17T05:53:31.621Z,36.91
2018-03-17T05:54:40.807Z,37.01
2018-03-17T05:55:49.706Z,36.91
2018-03-17T05:56:58.884Z,37.08
2018-03-17T05:58:07.795Z,36.9
2018-03-17T05:59:16.966Z,36.82
2018-03-17T06:00:25.903Z,36.9
2018-03-17T06:01:35.070Z,36.82
2018-03-17T06:02:44.054Z,36.91
2018-03-17T06:03:52.939Z,36.82
2018-03-17T06:05:02.109Z,36.99
2018-03-17T06:06:11.009Z,36.82
2018-03-17T06:07:20.175Z,36.9
2018-03-17T06:08:29.106Z,36.91
2018-03-17T06:09:38.307Z,36.91
2018-03-17T06:10:47.208Z,36.9
2018-03-17T06:11:56.626Z,36.91
2018-03-17T06:13:05.263Z,36.8
2018-03-17T06:14:14.959Z,36.82
2018-03-17T06:15:23.601Z,36.91
2018-03-17T06:16:32.771Z,36.82
2018-03-17T06:17:41.957Z,36.8
2018-03-17T06:18:50.883Z,36.91
2018-03-17T06:19:59.523Z,36.72
2018-03-17T06:21:08.715Z,36.82
2018-03-17T06:22:17.672Z,36.72
2018-03-17T06:23:26.832Z,36.53
2018-03-17T06:24:36.513Z,36.53
2018-03-17T06:25:45.175Z,36.53
2018-03-17T06:26:54.397Z,36.72
2018-03-17T06:28:03.065Z,36.53
2018-03-17T06:29:12.486Z,36.9
2018-03-17T06:30:21.678Z,36.72
2018-03-17T06:31:30.601Z,36.72
2018-03-17T06:32:39.770Z,36.82
2018-03-17T06:33:48.943Z,36.72
2018-03-17T06:34:58.344Z,36.51
2018-03-17T06:36:08.017Z,36.53
2018-03-17T06:37:16.695Z,36.43
2018-03-17T06:38:25.843Z,36.7
2018-03-17T06:39:34.752Z,36.72
2018-03-17T06:40:44.178Z,36.6
2018-03-17T06:41:53.608Z,36.7
2018-03-17T06:43:02.506Z,36.53
2018-03-17T06:44:11.980Z,36.6
2018-03-17T06:45:20.866Z,36.51
2018-03-17T06:46:29.771Z,36.82
2018-03-17T06:47:38.932Z,36.62
2018-03-17T06:48:47.828Z,36.62
2018-03-17T06:49:56.831Z,36.62
2018-03-17T06:51:05.751Z,36.62
2018-03-17T06:52:14.666Z,36.43
2018-03-17T06:53:23.572Z,36.53
2018-03-17T06:54:33.267Z,36.43
2018-03-17T06:55:41.903Z,36.53
2018-03-17T06:56:50.787Z,36.6
2018-03-17T06:57:59.426Z,36.53
2018-03-17T06:59:08.606Z,36.53
2018-03-17T07:00:17.254Z,36.53
2018-03-17T07:01:26.401Z,36.51
2018-03-17T07:02:35.549Z,36.43
2018-03-17T07:03:44.749Z,36.53
2018-03-17T07:04:54.170Z,36.53
2018-03-17T07:06:03.068Z,36.62
2018-03-17T07:07:11.713Z,36.51
2018-03-17T07:08:20.599Z,36.51
2018-03-17T07:09:30.021Z,36.51
2018-03-17T07:10:39.176Z,36.43
2018-03-17T07:11:48.333Z,36.53
2018-03-17T07:12:57.236Z,36.53
2018-03-17T07:14:06.411Z,36.51
2018-03-17T07:15:15.562Z,36.53
2018-03-17T07:16:24.984Z,36.41
2018-03-17T07:17:33.926Z,36.53
2018-03-17T07:18:42.567Z,36.51
2018-03-17T07:19:51.802Z,36.62
2018-03-17T07:21:01.010Z,36.62
2018-03-17T07:22:10.439Z,36.51
2018-03-17T07:23:19.851Z,36.62
2018-03-17T07:24:29.068Z,36.6
2018-03-17T07:25:37.723Z,36.53
2018-03-17T07:26:46.634Z,36.6
2018-03-17T07:27:55.810Z,36.51
2018-03-17T07:29:04.731Z,36.53
2018-03-17T07:30:13.385Z,36.41
2018-03-17T07:31:22.559Z,36.43
2018-03-17T07:32:31.482Z,36.51
2018-03-17T07:33:40.635Z,36.32
2018-03-17T07:34:49.810Z,36.24
2018-03-17T07:35:59.006Z,36.22
2018-03-17T07:37:08.183Z,36.24
2018-03-17T07:38:17.072Z,36.43
2018-03-17T07:39:26.491Z,36.33
2018-03-17T07:40:35.666Z,36.24
2018-03-17T07:41:45.077Z,36.15
2018-03-17T07:42:54.487Z,36.15
2018-03-17T07:44:03.177Z,35.85
2018-03-17T07:45:12.142Z,36.05
2018-03-17T07:46:21.665Z,35.95
2018-03-17T07:47:30.851Z,36.05
2018-03-17T07:48:40.032Z,35.95
2018-03-17T07:49:48.935Z,35.57
2018-03-17T07:50:57.860Z,35.66
2018-03-17T07:52:07.053Z,35.38
2018-03-17T07:53:16.514Z,35.28
2018-03-17T07:54:25.166Z,35.1
2018-03-17T07:55:34.060Z,35.1
2018-03-17T07:56:42.980Z,35
2018-03-17T07:57:51.945Z,35
2018-03-17T07:59:00.835Z,35.1
2018-03-17T08:00:09.744Z,35.2
2018-03-17T08:01:18.398Z,34.64
2018-03-17T08:02:27.304Z,34.54
2018-03-17T08:03:35.956Z,34.45
2018-03-17T08:04:44.921Z,34.35
2018-03-17T08:05:54.158Z,34.25
2018-03-17T08:07:03.338Z,34.45
2018-03-17T08:08:12.507Z,34.35
2018-03-17T08:09:21.479Z,34.08
2018-03-17T08:10:30.649Z,34.06
2018-03-17T08:11:39.889Z,34.27
2018-03-17T08:12:49.365Z,34.37
2018-03-17T08:13:58.788Z,34.37
2018-03-17T08:15:07.445Z,33.89
2018-03-17T08:16:16.368Z,34.08
2018-03-17T08:17:25.271Z,33.98
2018-03-17T08:18:34.710Z,33.98
2018-03-17T08:19:43.652Z,33.98
2018-03-17T08:20:52.314Z,33.79
2018-03-17T08:22:02.169Z,33.81
2018-03-17T08:23:11.129Z,33.61
2018-03-17T08:24:20.314Z,33.61
2018-03-17T08:25:29.233Z,33.13
2018-03-17T08:26:37.877Z,33.71
2018-03-17T08:27:47.061Z,33.42
2018-03-17T08:28:56.244Z,33.42
2018-03-17T08:30:06.464Z,33.51
2018-03-17T08:31:16.128Z,33.61
2018-03-17T08:32:25.379Z,33.71
2018-03-17T08:33:34.803Z,33.51
2018-03-17T08:34:44.265Z,33.42
2018-03-17T08:35:53.200Z,33.42
2018-03-17T08:37:02.364Z,33.05
2018-03-17T08:38:11.294Z,33.05
2018-03-17T08:39:20.804Z,33.34
2018-03-17T08:40:30.298Z,33.15
2018-03-17T08:41:39.255Z,33.25
2018-03-17T08:42:48.181Z,33.44
2018-03-17T08:43:56.817Z,33.15
2018-03-17T08:45:06.287Z,33.25
2018-03-17T08:46:15.207Z,32.95
2018-03-17T08:47:23.870Z,32.95
2018-03-17T08:48:33.317Z,33.25
2018-03-17T08:49:42.790Z,33.05
2018-03-17T08:50:51.708Z,33.05
2018-03-17T08:52:00.621Z,33.25
2018-03-17T08:53:10.130Z,33.15
2018-03-17T08:54:19.335Z,33.15
2018-03-17T08:55:29.047Z,32.95
2018-03-17T08:56:37.754Z,33.15
2018-03-17T08:57:46.668Z,33.34
2018-03-17T08:58:55.633Z,33.34
2018-03-17T09:00:04.838Z,33.44
2018-03-17T09:01:14.546Z,33.25
2018-03-17T09:02:24.236Z,32.95
2018-03-17T09:03:33.133Z,33.15
2018-03-17T09:04:42.858Z,32.95
2018-03-17T09:05:52.022Z,32.97
2018-03-17T09:07:01.192Z,33.15
2018-03-17T09:08:10.103Z,33.17
2018-03-17T09:09:19.017Z,33.17
2018-03-17T09:10:28.212Z,33.07
2018-03-17T09:11:37.628Z,33.07
2018-03-17T09:12:46.281Z,33.26
2018-03-17T09:13:54.955Z,33.07
2018-03-17T09:15:03.608Z,33.07
2018-03-17T09:16:12.563Z,33.05
2018-03-17T09:17:21.747Z,33.07
2018-03-17T09:18:30.919Z,33.07
2018-03-17T09:19:40.078Z,33.26
2018-03-17T09:20:49.279Z,33.26
2018-03-17T09:21:58.964Z,32.97
2018-03-17T09:23:08.112Z,33.07
2018-03-17T09:24:17.635Z,32.87
2018-03-17T09:25:26.518Z,32.97
2018-03-17T09:26:35.469Z,32.68
2018-03-17T09:27:44.378Z,32.78
2018-03-17T09:28:53.290Z,32.87
2018-03-17T09:30:02.477Z,32.97
2018-03-17T09:31:11.388Z,32.87
2018-03-17T09:32:20.030Z,32.39
2018-03-17T09:33:29.219Z,32.68
2018-03-17T09:34:38.421Z,32.49
2018-03-17T09:35:47.952Z,32.51
2018-03-17T09:36:57.127Z,32.6
2018-03-17T09:38:06.323Z,32.79
2018-03-17T09:39:15.496Z,32.7
2018-03-17T09:40:24.684Z,32.51
2018-03-17T09:41:33.612Z,32.41
2018-03-17T09:42:42.788Z,32.41
2018-03-17T09:43:52.281Z,32.41
2018-03-17T09:45:01.265Z,32.41
2018-03-17T09:46:09.919Z,32.51
2018-03-17T09:47:18.820Z,32.51
2018-03-17T09:48:27.487Z,32.41
2018-03-17T09:49:36.953Z,32.6
2018-03-17T09:50:45.615Z,32.51
2018-03-17T09:51:54.800Z,32.21
2018-03-17T09:53:04.568Z,32.31
2018-03-17T09:54:14.310Z,32.33
2018-03-17T09:55:23.794Z,32.31
2018-03-17T09:56:32.755Z,32.14
2018-03-17T09:57:41.669Z,32.23
2018-03-17T09:58:50.595Z,32.23
2018-03-17T10:00:00.258Z,32.14
2018-03-17T10:01:09.187Z,32.33
2018-03-17T10:02:18.114Z,32.14
2018-03-17T10:03:27.048Z,32.23
2018-03-17T10:04:36.228Z,32.23
2018-03-17T10:05:45.652Z,32.33
2018-03-17T10:06:55.098Z,32.23
2018-03-17T10:08:04.269Z,32.23
2018-03-17T10:09:13.220Z,32.23
2018-03-17T10:10:22.398Z,32.33
2018-03-17T10:11:31.583Z,32.71
2018-03-17T10:12:40.482Z,32.52
2018-03-17T10:13:49.466Z,32.52
2018-03-17T10:14:58.374Z,32.62
2018-03-17T10:16:08.055Z,32.62
2018-03-17T10:17:17.224Z,32.71
2018-03-17T10:18:26.171Z,32.52
2018-03-17T10:19:35.403Z,32.51
2018-03-17T10:20:44.069Z,32.81
2018-03-17T10:21:53.262Z,32.89
2018-03-17T10:23:02.185Z,32.7
2018-03-17T10:24:11.662Z,32.89
2018-03-17T10:25:20.566Z,32.99
2018-03-17T10:26:29.996Z,33.18
2018-03-17T10:27:39.274Z,33.18
2018-03-17T10:28:48.454Z,33.09
2018-03-17T10:29:57.371Z,33.18
2018-03-17T10:31:06.299Z,33.47
2018-03-17T10:32:15.507Z,33.28
2018-03-17T10:33:25.185Z,33.28
2018-03-17T10:34:34.623Z,33.37
2018-03-17T10:35:44.064Z,33.47
2018-03-17T10:36:53.292Z,33.66
2018-03-17T10:38:02.475Z,33.36
2018-03-17T10:39:11.662Z,33.65
2018-03-17T10:40:20.309Z,33.74
2018-03-17T10:41:29.218Z,33.94
2018-03-17T10:42:38.705Z,34.03
2018-03-17T10:43:47.875Z,34.22
2018-03-17T10:44:56.895Z,34.13
2018-03-17T10:46:06.337Z,33.94
2018-03-17T10:47:15.039Z,33.94
2018-03-17T10:48:24.231Z,34.42
2018-03-17T10:49:33.702Z,34.22
2018-03-17T10:50:42.773Z,34.21
2018-03-17T10:51:51.992Z,34.21
2018-03-17T10:53:01.457Z,34.21
2018-03-17T10:54:10.394Z,34.21
2018-03-17T10:55:19.931Z,34.4
2018-03-17T10:56:29.242Z,34.4
2018-03-17T10:57:38.692Z,34.4
2018-03-17T10:58:47.383Z,34.4
2018-03-17T10:59:56.598Z,34.01
2018-03-17T11:01:05.779Z,34.11
2018-03-17T11:02:14.718Z,34.11
2018-03-17T11:03:23.896Z,34.21
2018-03-17T11:04:32.856Z,34.3
2018-03-17T11:05:41.820Z,34.3
2018-03-17T11:06:50.755Z,34.3
2018-03-17T11:07:59.419Z,34.4
2018-03-17T11:09:08.645Z,34.4
2018-03-17T11:10:17.845Z,33.92
2018-03-17T11:11:26.781Z,34.03
2018-03-17T11:12:35.704Z,34.13
2018-03-17T11:13:45.455Z,34.03
2018-03-17T11:14:55.169Z,34.03
2018-03-17T11:16:04.349Z,34.03
2018-03-17T11:17:14.070Z,33.74
2018-03-17T11:18:23.331Z,33.84
2018-03-17T11:19:32.022Z,33.65
2018-03-17T11:20:41.231Z,33.55
2018-03-17T11:21:49.891Z,33.65
2018-03-17T11:22:58.945Z,33.65
2018-03-17T11:24:08.315Z,33.36
2018-03-17T11:25:17.488Z,33.45
2018-03-17T11:26:27.201Z,33.17
2018-03-17T11:27:35.850Z,33.26
2018-03-17T11:28:45.036Z,33.45
2018-03-17T11:29:53.986Z,33.36
2018-03-17T11:31:03.185Z,33.17
2018-03-17T11:32:12.410Z,32.97
2018-03-17T11:33:21.394Z,33.26
2018-03-17T11:34:30.590Z,33.45
2018-03-17T11:35:39.305Z,33.37
2018-03-17T11:36:48.278Z,33.28
2018-03-17T11:37:57.738Z,33.17
2018-03-17T11:39:06.972Z,33.09
2018-03-17T11:40:16.155Z,33.07
2018-03-17T11:41:25.372Z,33.18
2018-03-17T11:42:34.659Z,33.18
2018-03-17T11:43:43.881Z,33.18
2018-03-17T11:44:52.557Z,33.28
2018-03-17T11:46:01.495Z,33.09
2018-03-17T11:47:10.488Z,33.09
2018-03-17T11:48:19.569Z,33.09
2018-03-17T11:49:28.549Z,33.09
2018-03-17T11:50:38.110Z,32.89
2018-03-17T11:51:46.886Z,32.89
2018-03-17T11:52:55.830Z,32.99
2018-03-17T11:54:04.778Z,32.89
2018-03-17T11:55:13.498Z,32.7
2018-03-17T11:56:22.737Z,32.79
2018-03-17T11:57:31.932Z,32.7
2018-03-17T11:58:41.237Z,32.7
2018-03-17T11:59:50.687Z,32.99
2018-03-17T12:00:59.843Z,32.99
2018-03-17T12:02:08.778Z,32.99
2018-03-17T12:03:18.241Z,32.89
2018-03-17T12:04:27.511Z,32.89
2018-03-17T12:05:36.702Z,33.18
2018-03-17T12:06:45.365Z,32.79
2018-03-17T12:07:54.292Z,32.99
2018-03-17T12:09:03.206Z,33.09
2018-03-17T12:10:13.041Z,33.18
2018-03-17T12:11:21.735Z,32.6
2018-03-17T12:12:30.437Z,32.6
2018-03-17T12:13:39.614Z,32.89
2018-03-17T12:14:49.103Z,32.51
2018-03-17T12:15:58.049Z,32.6
2018-03-17T12:17:07.223Z,32.6
2018-03-17T12:18:16.135Z,32.7
2018-03-17T12:19:25.060Z,32.7
2018-03-17T12:20:34.784Z,32.6
2018-03-17T12:21:43.696Z,32.6
2018-03-17T12:22:53.141Z,32.6
2018-03-17T12:24:02.738Z,32.41
2018-03-17T12:25:11.661Z,32.51
2018-03-17T12:26:20.849Z,32.6
2018-03-17T12:27:29.818Z,32.7
2018-03-17T12:28:39.259Z,32.6
2018-03-17T12:29:48.513Z,32.7
2018-03-17T12:30:57.698Z,33.09
2018-03-17T12:32:06.869Z,32.89
2018-03-17T12:33:15.831Z,32.89
2018-03-17T12:34:24.781Z,32.97
2018-03-17T12:35:33.668Z,32.89
2018-03-17T12:36:42.833Z,33.18
2018-03-17T12:37:52.005Z,33.18
2018-03-17T12:39:01.194Z,33.07
2018-03-17T12:40:10.118Z,33.07
2018-03-17T12:41:18.777Z,33.07
2018-03-17T12:42:27.949Z,33.17
2018-03-17T12:43:37.638Z,33.26
2018-03-17T12:44:46.552Z,33.45
2018-03-17T12:45:55.526Z,33.36
2018-03-17T12:47:04.695Z,33.17
2018-03-17T12:48:14.468Z,33.36
2018-03-17T12:49:23.949Z,33.45
2018-03-17T12:50:33.383Z,33.45
2018-03-17T12:51:42.294Z,33.26
2018-03-17T12:52:51.233Z,33.65
2018-03-17T12:54:00.653Z,33.74
2018-03-17T12:55:10.153Z,33.15
2018-03-17T12:56:19.590Z,33.15
2018-03-17T12:57:28.255Z,33.63
2018-03-17T12:58:37.159Z,33.63
2018-03-17T12:59:46.560Z,33.63
2018-03-17T13:00:55.527Z,33.92
2018-03-17T13:02:04.444Z,33.92
2018-03-17T13:03:13.876Z,34.01
2018-03-17T13:04:22.531Z,33.92
2018-03-17T13:05:31.986Z,34.01
2018-03-17T13:06:40.896Z,34.01
2018-03-17T13:07:49.809Z,34.11
2018-03-17T13:08:59.017Z,34.21
2018-03-17T13:10:08.171Z,34.21
2018-03-17T13:11:17.602Z,34.01
2018-03-17T13:12:26.565Z,34.11
2018-03-17T13:13:35.458Z,34.11
2018-03-17T13:14:44.133Z,34.01
2018-03-17T13:15:53.322Z,34.01
2018-03-17T13:17:02.264Z,34.09
2018-03-17T13:18:11.196Z,34
2018-03-17T13:19:20.400Z,33.91
2018-03-17T13:20:29.963Z,34.29
2018-03-17T13:21:39.158Z,34
2018-03-17T13:22:48.857Z,33.81
2018-03-17T13:23:57.778Z,33.91
2018-03-17T13:25:07.183Z,34.38
2018-03-17T13:26:16.434Z,34.29
2018-03-17T13:27:26.213Z,34.29
2018-03-17T13:28:35.598Z,34.29
2018-03-17T13:29:44.509Z,34.19
2018-03-17T13:30:53.946Z,34.19
2018-03-17T13:32:03.142Z,34.29
2018-03-17T13:33:12.390Z,34.19
2018-03-17T13:34:21.132Z,34.19
2018-03-17T13:35:30.374Z,34.19
2018-03-17T13:36:39.540Z,34.09
2018-03-17T13:37:48.208Z,34.09
2018-03-17T13:38:57.456Z,34.09
2018-03-17T13:40:06.632Z,34.19
2018-03-17T13:41:15.879Z,34.09
2018-03-17T13:42:25.324Z,34.19
2018-03-17T13:43:34.273Z,34.19
2018-03-17T13:44:43.229Z,34.19
2018-03-17T13:45:52.406Z,34.17
2018-03-17T13:47:01.589Z,34.17
2018-03-17T13:48:10.751Z,33.98
2018-03-17T13:49:19.682Z,34.27
2018-03-17T13:50:28.929Z,34.17
2018-03-17T13:51:38.088Z,34.37
2018-03-17T13:52:47.532Z,34.27
2018-03-17T13:53:56.484Z,34.37
2018-03-17T13:55:05.414Z,34.37
2018-03-17T13:56:14.582Z,34.37
2018-03-17T13:57:23.765Z,34.17
2018-03-17T13:58:32.936Z,34.37
2018-03-17T13:59:42.775Z,34.37
2018-03-17T14:00:51.432Z,34.27
2018-03-17T14:02:00.347Z,34.08
2018-03-17T14:03:09.290Z,34.27
2018-03-17T14:04:18.181Z,34.17
2018-03-17T14:05:26.833Z,34.08
2018-03-17T14:06:35.752Z,34.17
2018-03-17T14:07:44.923Z,34.17
2018-03-17T14:08:53.623Z,34.08
2018-03-17T14:10:02.301Z,34.08
2018-03-17T14:11:11.284Z,34.37
2018-03-17T14:12:20.466Z,34.37
2018-03-17T14:13:29.144Z,34.37
2018-03-17T14:14:38.054Z,34.37
2018-03-17T14:15:46.967Z,34.08
2018-03-17T14:16:55.902Z,34.08
2018-03-17T14:18:04.541Z,34.17
2018-03-17T14:19:13.477Z,34.17
2018-03-17T14:20:22.640Z,34.27
2018-03-17T14:21:31.808Z,34.27
2018-03-17T14:22:41.490Z,34.27
2018-03-17T14:23:50.177Z,33.89
2018-03-17T14:24:59.390Z,33.89
2018-03-17T14:26:08.301Z,34.08
2018-03-17T14:27:17.208Z,33.98
2018-03-17T14:28:26.117Z,33.98
2018-03-17T14:29:34.763Z,33.79
2018-03-17T14:30:43.657Z,33.59
2018-03-17T14:31:52.830Z,33.21
2018-03-17T14:33:01.747Z,33.69
2018-03-17T14:34:10.662Z,33.79
2018-03-17T14:35:19.337Z,33.5
2018-03-17T14:36:27.986Z,33.4
2018-03-17T14:37:37.152Z,33.71
2018-03-17T14:39:36.919Z,33.23
2018-03-17T14:40:45.909Z,33.03
2018-03-17T14:41:55.091Z,32.46
2018-03-17T14:43:04.596Z,32.47
2018-03-17T14:44:13.840Z,31.99
2018-03-17T14:45:23.078Z,32.18
2018-03-17T14:46:32.323Z,31.8
2018-03-17T14:47:41.571Z,31.72
2018-03-17T14:48:50.516Z,31.72
2018-03-17T14:50:00.299Z,31.33
2018-03-17T14:51:09.731Z,31.15
2018-03-17T14:52:18.740Z,31.25
2018-03-17T14:53:28.329Z,31.15
2018-03-17T14:54:37.955Z,30.96
2018-03-17T14:55:46.926Z,30.88